Lavaltrie, Canada
Current Conditions -  °F | °C
As of 2:27 AM on Sunday 23 Nov 2014 (Local Time) from CYHU Reporting Station
Haze Haze  
Wind Chill: -1°   Ceiling: 3400
Heat Index:   Visibility: 3mi
Dew Point:   Wind: 10mph
Humidity: 93%   Direction: 230°SW
Pressure: 29.93"   Gusts: NA
Location:  45.88°N, 73.28°W
Report Text: CYHU 230727Z AUTO 23009KT 3SM BR SCT007 OVC034 03/02 A2993 RMK SLP135
Loading
Personal Weather Stations






























Interactive Weather Map New forecast layout! Learn more

10-Day Weather Forecast

Advertisements
Track Severe Weather on mobile